sensor_id;sensor_type;location;lat;lon;timestamp;P1;durP1;ratioP1;P2;durP2;ratioP2
11854;SDS011;5987;53.140;8.904;2022-11-20T00:02:40;20.87;;;13.80;;
11854;SDS011;5987;53.140;8.904;2022-11-20T00:05:43;21.07;;;13.70;;
11854;SDS011;5987;53.140;8.904;2022-11-20T00:08:49;19.50;;;13.57;;
11854;SDS011;5987;53.140;8.904;2022-11-20T00:11:57;26.03;;;14.00;;
11854;SDS011;5987;53.140;8.904;2022-11-20T00:15:01;23.93;;;14.87;;
11854;SDS011;5987;53.140;8.904;2022-11-20T00:18:05;20.83;;;12.80;;
11854;SDS011;5987;53.140;8.904;2022-11-20T00:21:10;17.83;;;13.20;;
11854;SDS011;5987;53.140;8.904;2022-11-20T00:24:18;22.43;;;14.23;;
11854;SDS011;5987;53.140;8.904;2022-11-20T00:27:21;20.50;;;14.63;;
11854;SDS011;5987;53.140;8.904;2022-11-20T00:30:25;21.97;;;14.57;;
11854;SDS011;5987;53.140;8.904;2022-11-20T00:33:28;22.17;;;14.10;;
11854;SDS011;5987;53.140;8.904;2022-11-20T00:36:33;23.73;;;14.03;;
11854;SDS011;5987;53.140;8.904;2022-11-20T00:39:38;17.17;;;13.50;;
11854;SDS011;5987;53.140;8.904;2022-11-20T00:42:42;20.57;;;13.23;;
11854;SDS011;5987;53.140;8.904;2022-11-20T00:45:46;18.50;;;13.60;;
11854;SDS011;5987;53.140;8.904;2022-11-20T00:48:49;21.17;;;13.43;;
11854;SDS011;5987;53.140;8.904;2022-11-20T00:51:53;20.67;;;13.63;;
11854;SDS011;5987;53.140;8.904;2022-11-20T00:54:58;20.93;;;14.03;;
11854;SDS011;5987;53.140;8.904;2022-11-20T00:58:01;26.80;;;15.10;;
11854;SDS011;5987;53.140;8.904;2022-11-20T01:01:09;17.40;;;13.13;;
11854;SDS011;5987;53.140;8.904;2022-11-20T01:04:16;21.13;;;13.67;;
11854;SDS011;5987;53.140;8.904;2022-11-20T01:07:19;18.07;;;12.70;;
11854;SDS011;5987;53.140;8.904;2022-11-20T01:10:25;18.27;;;12.50;;
11854;SDS011;5987;53.140;8.904;2022-11-20T01:13:28;18.50;;;12.10;;
11854;SDS011;5987;53.140;8.904;2022-11-20T01:16:43;16.10;;;11.90;;
11854;SDS011;5987;53.140;8.904;2022-11-20T01:19:49;18.47;;;13.00;;
11854;SDS011;5987;53.140;8.904;2022-11-20T01:22:53;16.97;;;12.40;;
11854;SDS011;5987;53.140;8.904;2022-11-20T01:25:58;19.63;;;13.33;;
11854;SDS011;5987;53.140;8.904;2022-11-20T01:29:04;18.83;;;13.10;;
11854;SDS011;5987;53.140;8.904;2022-11-20T01:32:09;19.20;;;13.00;;
11854;SDS011;5987;53.140;8.904;2022-11-20T01:35:13;21.37;;;13.33;;
11854;SDS011;5987;53.140;8.904;2022-11-20T01:38:17;20.33;;;13.87;;
11854;SDS011;5987;53.140;8.904;2022-11-20T01:41:23;20.87;;;13.73;;
11854;SDS011;5987;53.140;8.904;2022-11-20T01:44:49;19.87;;;13.33;;
11854;SDS011;5987;53.140;8.904;2022-11-20T01:47:56;21.33;;;13.27;;
11854;SDS011;5987;53.140;8.904;2022-11-20T01:51:00;22.43;;;14.43;;
11854;SDS011;5987;53.140;8.904;2022-11-20T01:54:06;17.90;;;13.80;;
11854;SDS011;5987;53.140;8.904;2022-11-20T01:57:17;19.87;;;13.03;;
11854;SDS011;5987;53.140;8.904;2022-11-20T02:00:23;18.47;;;14.00;;
11854;SDS011;5987;53.140;8.904;2022-11-20T02:03:27;19.90;;;14.23;;
11854;SDS011;5987;53.140;8.904;2022-11-20T02:06:31;19.97;;;14.43;;
11854;SDS011;5987;53.140;8.904;2022-11-20T02:09:41;18.70;;;13.07;;
11854;SDS011;5987;53.140;8.904;2022-11-20T02:12:46;24.20;;;14.47;;
11854;SDS011;5987;53.140;8.904;2022-11-20T02:16:08;23.17;;;14.83;;
11854;SDS011;5987;53.140;8.904;2022-11-20T02:19:21;21.07;;;14.50;;
11854;SDS011;5987;53.140;8.904;2022-11-20T02:22:31;26.10;;;14.83;;
11854;SDS011;5987;53.140;8.904;2022-11-20T02:25:44;21.33;;;14.23;;
11854;SDS011;5987;53.140;8.904;2022-11-20T02:28:49;24.13;;;14.50;;
11854;SDS011;5987;53.140;8.904;2022-11-20T02:31:54;22.33;;;14.07;;
11854;SDS011;5987;53.140;8.904;2022-11-20T02:35:06;22.23;;;13.80;;
11854;SDS011;5987;53.140;8.904;2022-11-20T02:38:11;21.03;;;14.83;;
11854;SDS011;5987;53.140;8.904;2022-11-20T02:41:17;24.07;;;14.50;;
11854;SDS011;5987;53.140;8.904;2022-11-20T02:44:21;27.03;;;14.67;;
11854;SDS011;5987;53.140;8.904;2022-11-20T02:47:25;23.37;;;14.77;;
11854;SDS011;5987;53.140;8.904;2022-11-20T02:50:28;26.77;;;15.00;;
11854;SDS011;5987;53.140;8.904;2022-11-20T02:53:32;27.33;;;15.70;;
11854;SDS011;5987;53.140;8.904;2022-11-20T02:56:38;20.03;;;14.27;;
11854;SDS011;5987;53.140;8.904;2022-11-20T02:59:42;24.63;;;14.30;;
11854;SDS011;5987;53.140;8.904;2022-11-20T03:02:46;23.03;;;14.97;;
11854;SDS011;5987;53.140;8.904;2022-11-20T03:05:49;23.57;;;14.67;;
11854;SDS011;5987;53.140;8.904;2022-11-20T03:08:53;19.60;;;13.43;;
11854;SDS011;5987;53.140;8.904;2022-11-20T03:11:58;21.97;;;14.63;;
11854;SDS011;5987;53.140;8.904;2022-11-20T03:15:02;20.20;;;13.37;;
11854;SDS011;5987;53.140;8.904;2022-11-20T03:18:07;19.77;;;13.70;;
11854;SDS011;5987;53.140;8.904;2022-11-20T03:21:12;20.37;;;14.27;;
11854;SDS011;5987;53.140;8.904;2022-11-20T03:24:18;22.03;;;14.20;;
11854;SDS011;5987;53.140;8.904;2022-11-20T03:27:23;19.70;;;13.83;;
11854;SDS011;5987;53.140;8.904;2022-11-20T03:30:26;21.23;;;13.87;;
11854;SDS011;5987;53.140;8.904;2022-11-20T03:33:31;19.03;;;11.67;;
11854;SDS011;5987;53.140;8.904;2022-11-20T03:36:35;21.43;;;12.97;;
11854;SDS011;5987;53.140;8.904;2022-11-20T03:39:41;23.30;;;13.87;;
11854;SDS011;5987;53.140;8.904;2022-11-20T03:42:47;22.83;;;13.37;;
11854;SDS011;5987;53.140;8.904;2022-11-20T03:45:51;20.50;;;12.80;;
11854;SDS011;5987;53.140;8.904;2022-11-20T03:48:54;18.87;;;12.97;;
11854;SDS011;5987;53.140;8.904;2022-11-20T03:51:59;20.93;;;12.53;;
11854;SDS011;5987;53.140;8.904;2022-11-20T03:55:02;19.10;;;12.27;;
11854;SDS011;5987;53.140;8.904;2022-11-20T03:58:08;18.07;;;11.23;;
11854;SDS011;5987;53.140;8.904;2022-11-20T04:01:13;20.90;;;12.30;;
11854;SDS011;5987;53.140;8.904;2022-11-20T04:04:19;17.23;;;11.27;;
11854;SDS011;5987;53.140;8.904;2022-11-20T04:07:23;22.07;;;12.33;;
11854;SDS011;5987;53.140;8.904;2022-11-20T04:10:26;20.07;;;11.40;;
11854;SDS011;5987;53.140;8.904;2022-11-20T04:13:31;16.57;;;10.90;;
11854;SDS011;5987;53.140;8.904;2022-11-20T04:16:35;18.40;;;11.17;;
11854;SDS011;5987;53.140;8.904;2022-11-20T04:19:39;17.60;;;10.63;;
11854;SDS011;5987;53.140;8.904;2022-11-20T04:22:43;21.27;;;11.07;;
11854;SDS011;5987;53.140;8.904;2022-11-20T04:25:46;15.67;;;10.43;;
11854;SDS011;5987;53.140;8.904;2022-11-20T04:28:51;17.73;;;11.23;;
11854;SDS011;5987;53.140;8.904;2022-11-20T04:31:55;20.03;;;11.33;;
11854;SDS011;5987;53.140;8.904;2022-11-20T04:34:59;15.47;;;10.03;;
11854;SDS011;5987;53.140;8.904;2022-11-20T04:38:02;18.60;;;10.80;;
11854;SDS011;5987;53.140;8.904;2022-11-20T04:41:07;20.27;;;10.53;;
11854;SDS011;5987;53.140;8.904;2022-11-20T04:44:21;18.17;;;10.60;;
11854;SDS011;5987;53.140;8.904;2022-11-20T04:47:25;16.10;;;10.93;;
11854;SDS011;5987;53.140;8.904;2022-11-20T04:50:28;17.07;;;10.87;;
11854;SDS011;5987;53.140;8.904;2022-11-20T04:53:32;16.43;;;10.87;;
11854;SDS011;5987;53.140;8.904;2022-11-20T04:56:36;15.77;;;10.77;;
11854;SDS011;5987;53.140;8.904;2022-11-20T04:59:41;15.30;;;9.97;;
11854;SDS011;5987;53.140;8.904;2022-11-20T05:02:45;16.87;;;10.40;;
11854;SDS011;5987;53.140;8.904;2022-11-20T05:05:48;16.20;;;10.30;;
11854;SDS011;5987;53.140;8.904;2022-11-20T05:08:52;13.57;;;9.50;;
11854;SDS011;5987;53.140;8.904;2022-11-20T05:11:56;14.33;;;9.43;;
11854;SDS011;5987;53.140;8.904;2022-11-20T05:15:01;16.10;;;10.30;;
11854;SDS011;5987;53.140;8.904;2022-11-20T05:18:05;12.23;;;9.03;;
11854;SDS011;5987;53.140;8.904;2022-11-20T05:21:09;13.70;;;9.20;;
11854;SDS011;5987;53.140;8.904;2022-11-20T05:24:15;16.40;;;9.40;;
11854;SDS011;5987;53.140;8.904;2022-11-20T05:27:18;14.87;;;9.30;;
11854;SDS011;5987;53.140;8.904;2022-11-20T05:30:23;14.00;;;9.37;;
11854;SDS011;5987;53.140;8.904;2022-11-20T05:33:27;13.00;;;9.10;;
11854;SDS011;5987;53.140;8.904;2022-11-20T05:36:31;14.77;;;9.30;;
11854;SDS011;5987;53.140;8.904;2022-11-20T05:39:35;12.50;;;8.43;;
11854;SDS011;5987;53.140;8.904;2022-11-20T05:42:38;13.47;;;9.13;;
11854;SDS011;5987;53.140;8.904;2022-11-20T05:45:52;13.20;;;8.10;;
11854;SDS011;5987;53.140;8.904;2022-11-20T05:48:56;11.30;;;7.87;;
11854;SDS011;5987;53.140;8.904;2022-11-20T05:52:00;12.37;;;8.40;;
11854;SDS011;5987;53.140;8.904;2022-11-20T05:55:04;13.70;;;9.63;;
11854;SDS011;5987;53.140;8.904;2022-11-20T05:58:09;12.93;;;8.93;;
11854;SDS011;5987;53.140;8.904;2022-11-20T06:01:16;23.40;;;9.03;;
11854;SDS011;5987;53.140;8.904;2022-11-20T06:04:22;12.77;;;9.50;;
11854;SDS011;5987;53.140;8.904;2022-11-20T06:07:26;15.87;;;9.27;;
11854;SDS011;5987;53.140;8.904;2022-11-20T06:10:30;12.27;;;8.93;;
11854;SDS011;5987;53.140;8.904;2022-11-20T06:13:33;16.40;;;9.23;;
11854;SDS011;5987;53.140;8.904;2022-11-20T06:16:44;17.63;;;9.03;;
11854;SDS011;5987;53.140;8.904;2022-11-20T06:19:47;15.50;;;9.00;;
11854;SDS011;5987;53.140;8.904;2022-11-20T06:22:51;14.97;;;10.07;;
11854;SDS011;5987;53.140;8.904;2022-11-20T06:25:55;13.43;;;8.43;;
11854;SDS011;5987;53.140;8.904;2022-11-20T06:28:58;14.27;;;8.03;;
11854;SDS011;5987;53.140;8.904;2022-11-20T06:32:04;12.40;;;8.53;;
11854;SDS011;5987;53.140;8.904;2022-11-20T06:35:08;11.77;;;8.37;;
11854;SDS011;5987;53.140;8.904;2022-11-20T06:38:12;16.73;;;9.40;;
11854;SDS011;5987;53.140;8.904;2022-11-20T06:41:16;15.07;;;9.13;;
11854;SDS011;5987;53.140;8.904;2022-11-20T06:44:22;12.43;;;8.43;;
11854;SDS011;5987;53.140;8.904;2022-11-20T06:47:27;14.30;;;8.60;;
11854;SDS011;5987;53.140;8.904;2022-11-20T06:50:31;13.13;;;8.87;;
11854;SDS011;5987;53.140;8.904;2022-11-20T06:53:35;12.83;;;9.57;;
11854;SDS011;5987;53.140;8.904;2022-11-20T06:56:39;14.17;;;8.57;;
11854;SDS011;5987;53.140;8.904;2022-11-20T06:59:43;12.47;;;8.63;;
11854;SDS011;5987;53.140;8.904;2022-11-20T07:02:48;12.93;;;8.27;;
11854;SDS011;5987;53.140;8.904;2022-11-20T07:05:53;10.60;;;7.70;;
11854;SDS011;5987;53.140;8.904;2022-11-20T07:08:58;11.27;;;7.57;;
11854;SDS011;5987;53.140;8.904;2022-11-20T07:12:03;10.47;;;7.73;;
11854;SDS011;5987;53.140;8.904;2022-11-20T07:15:07;14.50;;;7.33;;
11854;SDS011;5987;53.140;8.904;2022-11-20T07:18:13;13.53;;;8.20;;
11854;SDS011;5987;53.140;8.904;2022-11-20T07:21:16;15.23;;;8.67;;
11854;SDS011;5987;53.140;8.904;2022-11-20T07:24:20;13.30;;;8.30;;
11854;SDS011;5987;53.140;8.904;2022-11-20T07:27:24;12.43;;;8.57;;
11854;SDS011;5987;53.140;8.904;2022-11-20T07:30:28;14.60;;;8.83;;
11854;SDS011;5987;53.140;8.904;2022-11-20T07:33:34;14.27;;;8.03;;
11854;SDS011;5987;53.140;8.904;2022-11-20T07:36:37;12.87;;;9.10;;
11854;SDS011;5987;53.140;8.904;2022-11-20T07:39:43;15.57;;;9.27;;
11854;SDS011;5987;53.140;8.904;2022-11-20T07:42:47;13.63;;;9.20;;
11854;SDS011;5987;53.140;8.904;2022-11-20T07:45:51;17.93;;;9.07;;
11854;SDS011;5987;53.140;8.904;2022-11-20T07:48:59;14.03;;;9.70;;
11854;SDS011;5987;53.140;8.904;2022-11-20T07:52:02;14.97;;;10.00;;
11854;SDS011;5987;53.140;8.904;2022-11-20T07:55:07;16.77;;;9.63;;
11854;SDS011;5987;53.140;8.904;2022-11-20T07:58:12;16.97;;;9.77;;
11854;SDS011;5987;53.140;8.904;2022-11-20T08:01:16;12.80;;;8.93;;
11854;SDS011;5987;53.140;8.904;2022-11-20T08:04:21;14.87;;;9.13;;
11854;SDS011;5987;53.140;8.904;2022-11-20T08:07:25;14.00;;;9.33;;
11854;SDS011;5987;53.140;8.904;2022-11-20T08:10:28;14.50;;;8.37;;
11854;SDS011;5987;53.140;8.904;2022-11-20T08:13:32;14.40;;;8.47;;
11854;SDS011;5987;53.140;8.904;2022-11-20T08:16:55;14.17;;;8.90;;
11854;SDS011;5987;53.140;8.904;2022-11-20T08:20:00;12.20;;;9.30;;
11854;SDS011;5987;53.140;8.904;2022-11-20T08:23:04;13.67;;;9.60;;
11854;SDS011;5987;53.140;8.904;2022-11-20T08:26:09;13.87;;;9.37;;
11854;SDS011;5987;53.140;8.904;2022-11-20T08:29:13;12.10;;;8.63;;
11854;SDS011;5987;53.140;8.904;2022-11-20T08:32:17;13.00;;;8.60;;
11854;SDS011;5987;53.140;8.904;2022-11-20T08:35:22;13.67;;;9.33;;
11854;SDS011;5987;53.140;8.904;2022-11-20T08:38:26;12.07;;;8.87;;
11854;SDS011;5987;53.140;8.904;2022-11-20T08:41:30;13.70;;;9.20;;
11854;SDS011;5987;53.140;8.904;2022-11-20T08:44:34;14.83;;;9.87;;
11854;SDS011;5987;53.140;8.904;2022-11-20T08:47:38;11.10;;;8.60;;
11854;SDS011;5987;53.140;8.904;2022-11-20T08:50:43;13.43;;;9.57;;
11854;SDS011;5987;53.140;8.904;2022-11-20T08:53:47;14.30;;;9.40;;
11854;SDS011;5987;53.140;8.904;2022-11-20T08:56:51;13.20;;;9.40;;
11854;SDS011;5987;53.140;8.904;2022-11-20T08:59:55;11.90;;;9.03;;
11854;SDS011;5987;53.140;8.904;2022-11-20T09:03:07;12.70;;;8.43;;
11854;SDS011;5987;53.140;8.904;2022-11-20T09:06:13;13.13;;;9.20;;
11854;SDS011;5987;53.140;8.904;2022-11-20T09:09:17;17.67;;;9.30;;
11854;SDS011;5987;53.140;8.904;2022-11-20T09:12:21;12.77;;;8.73;;
11854;SDS011;5987;53.140;8.904;2022-11-20T09:15:34;14.63;;;9.60;;
11854;SDS011;5987;53.140;8.904;2022-11-20T09:18:38;15.13;;;9.70;;
11854;SDS011;5987;53.140;8.904;2022-11-20T09:21:43;14.97;;;9.93;;
11854;SDS011;5987;53.140;8.904;2022-11-20T09:24:47;15.13;;;9.80;;
11854;SDS011;5987;53.140;8.904;2022-11-20T09:27:54;14.80;;;9.20;;
11854;SDS011;5987;53.140;8.904;2022-11-20T09:30:59;14.63;;;10.43;;
11854;SDS011;5987;53.140;8.904;2022-11-20T09:34:03;13.97;;;10.27;;
11854;SDS011;5987;53.140;8.904;2022-11-20T09:37:08;16.23;;;10.10;;
11854;SDS011;5987;53.140;8.904;2022-11-20T09:40:17;14.57;;;10.23;;
11854;SDS011;5987;53.140;8.904;2022-11-20T09:43:26;15.07;;;10.30;;
11854;SDS011;5987;53.140;8.904;2022-11-20T09:47:00;17.67;;;11.70;;
11854;SDS011;5987;53.140;8.904;2022-11-20T09:50:16;17.70;;;12.00;;
11854;SDS011;5987;53.140;8.904;2022-11-20T09:53:37;15.40;;;11.50;;
11854;SDS011;5987;53.140;8.904;2022-11-20T09:57:01;17.17;;;10.63;;
11854;SDS011;5987;53.140;8.904;2022-11-20T10:00:13;15.53;;;11.57;;
11854;SDS011;5987;53.140;8.904;2022-11-20T10:03:20;15.23;;;11.17;;
11854;SDS011;5987;53.140;8.904;2022-11-20T10:06:44;15.70;;;10.73;;
11854;SDS011;5987;53.140;8.904;2022-11-20T10:10:21;19.37;;;11.93;;
11854;SDS011;5987;53.140;8.904;2022-11-20T10:13:45;17.60;;;11.90;;
11854;SDS011;5987;53.140;8.904;2022-11-20T10:17:10;17.37;;;11.60;;
11854;SDS011;5987;53.140;8.904;2022-11-20T10:20:24;16.87;;;11.43;;
11854;SDS011;5987;53.140;8.904;2022-11-20T10:23:44;18.27;;;12.40;;
11854;SDS011;5987;53.140;8.904;2022-11-20T10:27:33;17.70;;;12.23;;
11854;SDS011;5987;53.140;8.904;2022-11-20T10:31:00;19.40;;;12.30;;
11854;SDS011;5987;53.140;8.904;2022-11-20T10:34:11;18.00;;;11.97;;
11854;SDS011;5987;53.140;8.904;2022-11-20T10:37:26;20.80;;;12.10;;
11854;SDS011;5987;53.140;8.904;2022-11-20T10:40:34;20.33;;;13.20;;
11854;SDS011;5987;53.140;8.904;2022-11-20T10:43:44;19.90;;;12.83;;
11854;SDS011;5987;53.140;8.904;2022-11-20T10:46:51;22.13;;;13.77;;
11854;SDS011;5987;53.140;8.904;2022-11-20T10:49:56;22.43;;;13.40;;
11854;SDS011;5987;53.140;8.904;2022-11-20T10:53:08;23.00;;;14.67;;
11854;SDS011;5987;53.140;8.904;2022-11-20T10:56:31;21.03;;;13.40;;
11854;SDS011;5987;53.140;8.904;2022-11-20T10:59:54;21.57;;;13.90;;
11854;SDS011;5987;53.140;8.904;2022-11-20T11:03:13;23.83;;;13.70;;
11854;SDS011;5987;53.140;8.904;2022-11-20T11:06:29;22.83;;;13.83;;
11854;SDS011;5987;53.140;8.904;2022-11-20T11:09:41;21.97;;;13.97;;
11854;SDS011;5987;53.140;8.904;2022-11-20T11:12:50;23.87;;;15.27;;
11854;SDS011;5987;53.140;8.904;2022-11-20T11:15:55;28.73;;;16.27;;
11854;SDS011;5987;53.140;8.904;2022-11-20T11:19:04;25.90;;;15.57;;
11854;SDS011;5987;53.140;8.904;2022-11-20T11:22:10;28.77;;;17.03;;
11854;SDS011;5987;53.140;8.904;2022-11-20T11:25:22;24.47;;;15.67;;
11854;SDS011;5987;53.140;8.904;2022-11-20T11:28:32;25.63;;;16.00;;
11854;SDS011;5987;53.140;8.904;2022-11-20T11:31:38;29.60;;;18.10;;
11854;SDS011;5987;53.140;8.904;2022-11-20T11:34:41;26.33;;;16.30;;
11854;SDS011;5987;53.140;8.904;2022-11-20T11:37:45;24.20;;;14.50;;
11854;SDS011;5987;53.140;8.904;2022-11-20T11:40:52;22.37;;;15.37;;
11854;SDS011;5987;53.140;8.904;2022-11-20T11:44:00;21.00;;;14.57;;
11854;SDS011;5987;53.140;8.904;2022-11-20T11:47:42;20.77;;;13.30;;
11854;SDS011;5987;53.140;8.904;2022-11-20T11:50:50;18.67;;;13.63;;
11854;SDS011;5987;53.140;8.904;2022-11-20T11:53:55;25.10;;;15.43;;
11854;SDS011;5987;53.140;8.904;2022-11-20T11:57:03;26.30;;;17.43;;
11854;SDS011;5987;53.140;8.904;2022-11-20T12:00:18;29.97;;;18.50;;
11854;SDS011;5987;53.140;8.904;2022-11-20T12:03:27;26.97;;;18.23;;
11854;SDS011;5987;53.140;8.904;2022-11-20T12:06:38;27.83;;;18.80;;
11854;SDS011;5987;53.140;8.904;2022-11-20T12:09:49;29.83;;;20.00;;
11854;SDS011;5987;53.140;8.904;2022-11-20T12:12:58;33.77;;;20.90;;
11854;SDS011;5987;53.140;8.904;2022-11-20T12:16:12;26.87;;;16.80;;
11854;SDS011;5987;53.140;8.904;2022-11-20T12:19:21;25.73;;;17.07;;
11854;SDS011;5987;53.140;8.904;2022-11-20T12:22:28;29.77;;;19.73;;
11854;SDS011;5987;53.140;8.904;2022-11-20T12:25:43;39.37;;;26.17;;
11854;SDS011;5987;53.140;8.904;2022-11-20T12:28:59;40.93;;;27.30;;
11854;SDS011;5987;53.140;8.904;2022-11-20T12:32:28;36.63;;;25.00;;
11854;SDS011;5987;53.140;8.904;2022-11-20T12:36:07;36.80;;;24.40;;
11854;SDS011;5987;53.140;8.904;2022-11-20T12:39:34;35.50;;;23.30;;
11854;SDS011;5987;53.140;8.904;2022-11-20T12:42:50;38.33;;;23.30;;
11854;SDS011;5987;53.140;8.904;2022-11-20T12:46:28;33.43;;;22.63;;
11854;SDS011;5987;53.140;8.904;2022-11-20T12:49:45;30.27;;;18.97;;
11854;SDS011;5987;53.140;8.904;2022-11-20T12:53:05;29.03;;;18.43;;
11854;SDS011;5987;53.140;8.904;2022-11-20T12:56:25;25.00;;;17.87;;
11854;SDS011;5987;53.140;8.904;2022-11-20T12:59:58;22.10;;;12.40;;
11854;SDS011;5987;53.140;8.904;2022-11-20T13:03:16;16.83;;;10.27;;
11854;SDS011;5987;53.140;8.904;2022-11-20T13:06:41;20.57;;;10.77;;
11854;SDS011;5987;53.140;8.904;2022-11-20T13:09:49;14.40;;;9.67;;
11854;SDS011;5987;53.140;8.904;2022-11-20T13:12:55;16.07;;;11.17;;
11854;SDS011;5987;53.140;8.904;2022-11-20T13:16:07;16.43;;;10.67;;
11854;SDS011;5987;53.140;8.904;2022-11-20T13:19:19;17.40;;;10.90;;
11854;SDS011;5987;53.140;8.904;2022-11-20T13:22:24;16.73;;;9.97;;
11854;SDS011;5987;53.140;8.904;2022-11-20T13:25:30;15.50;;;9.43;;
11854;SDS011;5987;53.140;8.904;2022-11-20T13:28:36;17.67;;;12.00;;
11854;SDS011;5987;53.140;8.904;2022-11-20T13:31:42;16.73;;;10.33;;
11854;SDS011;5987;53.140;8.904;2022-11-20T13:34:52;15.90;;;10.97;;
11854;SDS011;5987;53.140;8.904;2022-11-20T13:38:00;16.43;;;9.60;;
11854;SDS011;5987;53.140;8.904;2022-11-20T13:41:10;13.00;;;9.10;;
11854;SDS011;5987;53.140;8.904;2022-11-20T13:44:33;14.73;;;10.07;;
11854;SDS011;5987;53.140;8.904;2022-11-20T13:47:47;15.73;;;10.17;;
11854;SDS011;5987;53.140;8.904;2022-11-20T13:54:42;15.73;;;9.00;;
11854;SDS011;5987;53.140;8.904;2022-11-20T14:01:38;15.17;;;9.13;;
11854;SDS011;5987;53.140;8.904;2022-11-20T14:04:47;13.70;;;8.73;;
11854;SDS011;5987;53.140;8.904;2022-11-20T14:07:54;14.57;;;9.47;;
11854;SDS011;5987;53.140;8.904;2022-11-20T14:11:11;13.27;;;9.43;;
11854;SDS011;5987;53.140;8.904;2022-11-20T14:14:21;12.50;;;8.17;;
11854;SDS011;5987;53.140;8.904;2022-11-20T14:17:29;12.90;;;8.57;;
11854;SDS011;5987;53.140;8.904;2022-11-20T14:20:36;13.10;;;8.47;;
11854;SDS011;5987;53.140;8.904;2022-11-20T14:23:42;18.47;;;10.93;;
11854;SDS011;5987;53.140;8.904;2022-11-20T14:26:46;19.73;;;13.10;;
11854;SDS011;5987;53.140;8.904;2022-11-20T14:29:55;15.83;;;9.70;;
11854;SDS011;5987;53.140;8.904;2022-11-20T14:33:00;15.63;;;9.07;;
11854;SDS011;5987;53.140;8.904;2022-11-20T14:36:15;15.10;;;8.53;;
11854;SDS011;5987;53.140;8.904;2022-11-20T14:39:22;16.53;;;9.13;;
11854;SDS011;5987;53.140;8.904;2022-11-20T14:42:33;15.90;;;9.30;;
11854;SDS011;5987;53.140;8.904;2022-11-20T14:45:40;14.00;;;8.40;;
11854;SDS011;5987;53.140;8.904;2022-11-20T14:48:45;12.10;;;8.17;;
11854;SDS011;5987;53.140;8.904;2022-11-20T14:51:58;13.00;;;7.97;;
11854;SDS011;5987;53.140;8.904;2022-11-20T14:55:04;11.90;;;8.03;;
11854;SDS011;5987;53.140;8.904;2022-11-20T14:58:20;12.37;;;8.40;;
11854;SDS011;5987;53.140;8.904;2022-11-20T15:01:27;13.40;;;7.93;;
11854;SDS011;5987;53.140;8.904;2022-11-20T15:04:43;16.43;;;10.67;;
11854;SDS011;5987;53.140;8.904;2022-11-20T15:07:50;15.47;;;11.10;;
11854;SDS011;5987;53.140;8.904;2022-11-20T15:11:16;13.17;;;9.30;;
11854;SDS011;5987;53.140;8.904;2022-11-20T15:14:27;16.23;;;10.40;;
11854;SDS011;5987;53.140;8.904;2022-11-20T15:17:40;16.60;;;10.23;;
11854;SDS011;5987;53.140;8.904;2022-11-20T15:20:44;19.63;;;10.63;;
11854;SDS011;5987;53.140;8.904;2022-11-20T15:23:54;15.07;;;9.80;;
11854;SDS011;5987;53.140;8.904;2022-11-20T15:27:00;15.80;;;10.20;;
11854;SDS011;5987;53.140;8.904;2022-11-20T15:30:07;16.33;;;10.00;;
11854;SDS011;5987;53.140;8.904;2022-11-20T15:33:19;15.33;;;10.33;;
11854;SDS011;5987;53.140;8.904;2022-11-20T15:36:23;18.17;;;11.37;;
11854;SDS011;5987;53.140;8.904;2022-11-20T15:39:27;18.30;;;11.23;;
11854;SDS011;5987;53.140;8.904;2022-11-20T15:42:30;16.93;;;11.77;;
11854;SDS011;5987;53.140;8.904;2022-11-20T15:45:36;18.97;;;11.70;;
11854;SDS011;5987;53.140;8.904;2022-11-20T15:48:45;18.23;;;11.17;;
11854;SDS011;5987;53.140;8.904;2022-11-20T15:51:54;14.97;;;12.50;;
11854;SDS011;5987;53.140;8.904;2022-11-20T15:54:58;17.70;;;12.33;;
11854;SDS011;5987;53.140;8.904;2022-11-20T15:58:08;20.47;;;13.07;;
11854;SDS011;5987;53.140;8.904;2022-11-20T16:01:13;22.30;;;14.17;;
11854;SDS011;5987;53.140;8.904;2022-11-20T16:04:20;23.77;;;15.67;;
11854;SDS011;5987;53.140;8.904;2022-11-20T16:07:24;29.23;;;17.70;;
11854;SDS011;5987;53.140;8.904;2022-11-20T16:10:28;24.77;;;16.60;;
11854;SDS011;5987;53.140;8.904;2022-11-20T16:13:32;22.80;;;15.17;;
11854;SDS011;5987;53.140;8.904;2022-11-20T16:16:53;20.47;;;14.83;;
11854;SDS011;5987;53.140;8.904;2022-11-20T16:19:57;25.20;;;18.30;;
11854;SDS011;5987;53.140;8.904;2022-11-20T16:23:01;25.67;;;19.03;;
11854;SDS011;5987;53.140;8.904;2022-11-20T16:26:08;26.57;;;18.30;;
11854;SDS011;5987;53.140;8.904;2022-11-20T16:29:13;24.70;;;17.97;;
11854;SDS011;5987;53.140;8.904;2022-11-20T16:32:17;25.13;;;16.07;;
11854;SDS011;5987;53.140;8.904;2022-11-20T16:35:22;23.90;;;16.90;;
11854;SDS011;5987;53.140;8.904;2022-11-20T16:38:28;19.90;;;14.23;;
11854;SDS011;5987;53.140;8.904;2022-11-20T16:41:32;23.63;;;15.13;;
11854;SDS011;5987;53.140;8.904;2022-11-20T16:44:37;19.53;;;14.37;;
11854;SDS011;5987;53.140;8.904;2022-11-20T16:47:41;24.00;;;16.70;;
11854;SDS011;5987;53.140;8.904;2022-11-20T16:50:48;23.20;;;16.60;;
11854;SDS011;5987;53.140;8.904;2022-11-20T16:53:54;24.47;;;16.37;;
11854;SDS011;5987;53.140;8.904;2022-11-20T16:56:58;32.73;;;20.07;;
11854;SDS011;5987;53.140;8.904;2022-11-20T17:00:02;41.17;;;23.10;;
11854;SDS011;5987;53.140;8.904;2022-11-20T17:03:07;28.30;;;19.40;;
11854;SDS011;5987;53.140;8.904;2022-11-20T17:06:13;42.50;;;27.83;;
11854;SDS011;5987;53.140;8.904;2022-11-20T17:09:19;32.53;;;20.20;;
11854;SDS011;5987;53.140;8.904;2022-11-20T17:12:22;25.97;;;18.00;;
11854;SDS011;5987;53.140;8.904;2022-11-20T17:15:35;29.07;;;18.37;;
11854;SDS011;5987;53.140;8.904;2022-11-20T17:18:39;26.53;;;18.87;;
11854;SDS011;5987;53.140;8.904;2022-11-20T17:21:44;37.47;;;25.10;;
11854;SDS011;5987;53.140;8.904;2022-11-20T17:24:48;32.28;;;23.27;;
11854;SDS011;5987;53.140;8.904;2022-11-20T17:27:53;25.90;;;19.47;;
11854;SDS011;5987;53.140;8.904;2022-11-20T17:31:00;31.60;;;24.53;;
11854;SDS011;5987;53.140;8.904;2022-11-20T17:34:04;35.83;;;24.60;;
11854;SDS011;5987;53.140;8.904;2022-11-20T17:37:11;40.43;;;26.27;;
11854;SDS011;5987;53.140;8.904;2022-11-20T17:40:15;41.00;;;28.40;;
11854;SDS011;5987;53.140;8.904;2022-11-20T17:43:24;53.93;;;30.67;;
11854;SDS011;5987;53.140;8.904;2022-11-20T17:46:36;81.80;;;40.70;;
11854;SDS011;5987;53.140;8.904;2022-11-20T17:49:50;65.90;;;39.97;;
11854;SDS011;5987;53.140;8.904;2022-11-20T17:52:56;101.93;;;47.73;;
11854;SDS011;5987;53.140;8.904;2022-11-20T17:56:00;75.73;;;41.07;;
11854;SDS011;5987;53.140;8.904;2022-11-20T17:59:21;83.10;;;43.63;;
11854;SDS011;5987;53.140;8.904;2022-11-20T18:02:25;41.53;;;25.00;;
11854;SDS011;5987;53.140;8.904;2022-11-20T18:05:45;35.20;;;21.83;;
11854;SDS011;5987;53.140;8.904;2022-11-20T18:08:50;61.00;;;32.97;;
11854;SDS011;5987;53.140;8.904;2022-11-20T18:11:53;58.37;;;31.63;;
11854;SDS011;5987;53.140;8.904;2022-11-20T18:14:57;69.47;;;40.63;;
11854;SDS011;5987;53.140;8.904;2022-11-20T18:18:01;34.50;;;22.23;;
11854;SDS011;5987;53.140;8.904;2022-11-20T18:21:10;44.37;;;27.50;;
11854;SDS011;5987;53.140;8.904;2022-11-20T18:24:18;44.93;;;28.67;;
11854;SDS011;5987;53.140;8.904;2022-11-20T18:27:23;25.10;;;15.73;;
11854;SDS011;5987;53.140;8.904;2022-11-20T18:30:26;25.00;;;15.90;;
11854;SDS011;5987;53.140;8.904;2022-11-20T18:33:30;28.63;;;20.40;;
11854;SDS011;5987;53.140;8.904;2022-11-20T18:36:34;43.63;;;30.63;;
11854;SDS011;5987;53.140;8.904;2022-11-20T18:39:40;47.13;;;32.23;;
11854;SDS011;5987;53.140;8.904;2022-11-20T18:42:44;41.23;;;27.30;;
11854;SDS011;5987;53.140;8.904;2022-11-20T18:46:04;68.73;;;43.80;;
11854;SDS011;5987;53.140;8.904;2022-11-20T18:49:08;40.23;;;28.90;;